createdAt,value
2018-12-26T00:02:24.105Z,19.73
2018-12-26T00:04:57.821Z,20.80
2018-12-26T00:07:35.534Z,21.80
2018-12-26T00:10:11.106Z,21.80
2018-12-26T00:12:41.590Z,22.00
2018-12-26T00:15:25.489Z,21.57
2018-12-26T00:17:59.212Z,21.47
2018-12-26T00:20:30.648Z,21.67
2018-12-26T00:23:00.118Z,22.10
2018-12-26T00:25:29.654Z,20.40
2018-12-26T00:28:02.207Z,23.53
2018-12-26T00:30:37.514Z,23.60
2018-12-26T00:33:06.966Z,22.97
2018-12-26T00:35:43.669Z,22.03
2018-12-26T00:38:13.158Z,22.17
2018-12-26T00:40:48.516Z,20.87
2018-12-26T00:43:18.018Z,22.10
2018-12-26T00:45:52.755Z,22.60
2018-12-26T00:48:23.233Z,22.27
2018-12-26T00:51:07.790Z,23.47
2018-12-26T00:53:41.568Z,22.77
2018-12-26T00:56:10.980Z,22.90
2018-12-26T00:58:41.469Z,20.93
2018-12-26T01:01:11.890Z,22.67
2018-12-26T01:03:53.662Z,23.47
2018-12-26T01:06:23.090Z,23.40
2018-12-26T01:08:52.734Z,23.97
2018-12-26T01:11:24.363Z,22.93
2018-12-26T01:13:55.883Z,23.90
2018-12-26T01:16:25.388Z,23.40
2018-12-26T01:18:54.945Z,22.47
2018-12-26T01:21:30.367Z,24.37
2018-12-26T01:24:03.918Z,24.63
2018-12-26T01:26:44.397Z,25.27
2018-12-26T01:29:14.914Z,24.80
2018-12-26T01:31:47.499Z,25.67
2018-12-26T01:34:17.891Z,24.03
2018-12-26T01:36:47.364Z,24.60
2018-12-26T01:39:18.802Z,24.47
2018-12-26T01:41:48.349Z,25.87
2018-12-26T01:44:20.939Z,24.67
2018-12-26T01:46:50.437Z,23.53
2018-12-26T01:49:20.854Z,24.30
2018-12-26T01:51:54.823Z,23.47
2018-12-26T01:54:24.266Z,24.57
2018-12-26T01:56:56.846Z,23.97
2018-12-26T01:59:27.332Z,23.57
2018-12-26T02:01:58.829Z,24.40
2018-12-26T02:04:33.324Z,26.77
2018-12-26T02:07:02.864Z,25.77
2018-12-26T02:09:34.446Z,27.63
2018-12-26T02:12:11.052Z,26.80
2018-12-26T02:14:41.577Z,28.27
2018-12-26T02:17:13.039Z,28.37
2018-12-26T02:19:43.642Z,26.80
2018-12-26T02:22:13.079Z,26.57
2018-12-26T02:24:43.522Z,27.40
2018-12-26T02:27:12.952Z,27.83
2018-12-26T02:29:46.371Z,27.03
2018-12-26T02:32:16.881Z,26.70
2018-12-26T02:34:46.449Z,28.07
2018-12-26T02:37:21.179Z,26.77
2018-12-26T02:39:57.677Z,26.77
2018-12-26T02:42:29.184Z,25.30
2018-12-26T02:45:00.684Z,26.17
2018-12-26T02:47:38.160Z,26.73
2018-12-26T02:50:10.884Z,25.63
2018-12-26T02:52:40.349Z,26.53
2018-12-26T02:55:11.031Z,26.53
2018-12-26T02:57:42.638Z,27.57
2018-12-26T03:00:13.133Z,29.13
2018-12-26T03:02:47.729Z,29.33
2018-12-26T03:05:17.261Z,29.50
2018-12-26T03:07:52.538Z,29.17
2018-12-26T03:10:23.999Z,30.07
2018-12-26T03:12:54.490Z,31.43
2018-12-26T03:15:26.145Z,30.83
2018-12-26T03:17:56.037Z,31.57
2018-12-26T03:20:25.540Z,30.37
2018-12-26T03:22:56.148Z,29.80
2018-12-26T03:25:25.633Z,30.70
2018-12-26T03:27:57.152Z,31.00
2018-12-26T03:30:41.047Z,30.67
2018-12-26T03:33:29.634Z,28.10
2018-12-26T03:36:00.123Z,29.10
2018-12-26T03:38:31.583Z,29.27
2018-12-26T03:41:02.055Z,28.57
2018-12-26T03:43:31.474Z,28.47
2018-12-26T03:46:02.966Z,31.20
2018-12-26T03:48:33.492Z,29.27
2018-12-26T03:51:03.914Z,30.13
2018-12-26T03:53:33.423Z,29.13
2018-12-26T03:56:08.794Z,29.27
2018-12-26T03:58:44.047Z,28.90
2018-12-26T04:01:13.611Z,27.60
2018-12-26T04:03:51.063Z,28.13
2018-12-26T04:06:26.777Z,29.13
2018-12-26T04:09:02.552Z,26.70
2018-12-26T04:11:33.213Z,28.67
2018-12-26T04:14:02.800Z,28.27
2018-12-26T04:16:38.075Z,31.20
2018-12-26T04:19:07.671Z,29.73
2018-12-26T04:21:38.245Z,30.83
2018-12-26T04:24:13.776Z,29.37
2018-12-26T04:26:43.243Z,28.43
2018-12-26T04:29:13.706Z,30.87
2018-12-26T04:31:43.229Z,29.27
2018-12-26T04:34:26.521Z,29.27
2018-12-26T04:36:56.004Z,28.70
2018-12-26T04:39:27.575Z,31.07
2018-12-26T04:42:09.268Z,29.23
2018-12-26T04:44:38.674Z,29.23
2018-12-26T04:47:10.169Z,29.27
2018-12-26T04:49:47.474Z,31.47
2018-12-26T04:52:16.905Z,30.07
2018-12-26T04:54:56.358Z,29.17
2018-12-26T04:57:27.493Z,29.80
2018-12-26T04:59:57.992Z,28.53
2018-12-26T05:02:27.449Z,28.10
2018-12-26T05:04:57.922Z,27.83
2018-12-26T05:07:27.413Z,28.87
2018-12-26T05:09:57.883Z,28.07
2018-12-26T05:12:27.398Z,27.93
2018-12-26T05:14:56.930Z,27.63
2018-12-26T05:17:27.441Z,26.87
2018-12-26T05:20:09.441Z,26.17
2018-12-26T05:22:38.863Z,25.50
2018-12-26T05:25:09.320Z,25.07
2018-12-26T05:27:38.842Z,24.93
2018-12-26T05:30:15.316Z,25.00
2018-12-26T05:32:44.897Z,25.67
2018-12-26T05:35:23.393Z,25.63
2018-12-26T05:37:54.881Z,26.33
2018-12-26T05:40:37.337Z,25.23
2018-12-26T05:43:06.773Z,25.93
2018-12-26T05:45:36.171Z,23.97
2018-12-26T05:48:06.649Z,23.80
2018-12-26T05:50:37.047Z,25.07
2018-12-26T05:53:12.377Z,24.90
2018-12-26T05:55:41.828Z,24.73
2018-12-26T05:58:18.220Z,25.80
2018-12-26T06:00:49.574Z,24.97
2018-12-26T06:03:25.176Z,25.17
2018-12-26T06:06:03.588Z,24.53
2018-12-26T06:08:35.013Z,23.17
2018-12-26T06:11:05.426Z,24.60
2018-12-26T06:13:35.917Z,26.60
2018-12-26T06:16:11.086Z,25.80
2018-12-26T06:18:41.526Z,25.80
2018-12-26T06:21:17.026Z,25.23
2018-12-26T06:23:48.531Z,25.37
2018-12-26T06:26:17.955Z,25.73
2018-12-26T06:28:47.456Z,25.20
2018-12-26T06:31:29.881Z,26.07
2018-12-26T06:34:04.570Z,24.43
2018-12-26T06:36:34.036Z,25.30
2018-12-26T06:39:04.727Z,24.83
2018-12-26T06:41:35.933Z,24.67
2018-12-26T06:44:13.348Z,25.13
2018-12-26T06:46:43.787Z,24.47
2018-12-26T06:49:13.314Z,25.57
2018-12-26T06:51:42.839Z,24.83
2018-12-26T06:54:12.394Z,24.00
2018-12-26T06:56:41.838Z,25.00
2018-12-26T06:59:11.303Z,24.73
2018-12-26T07:01:42.738Z,23.03
2018-12-26T07:04:24.355Z,23.60
2018-12-26T07:06:53.815Z,24.00
2018-12-26T07:09:29.196Z,24.23
2018-12-26T07:12:03.740Z,24.07
2018-12-26T07:14:33.463Z,24.60
2018-12-26T07:17:03.899Z,26.37
2018-12-26T07:19:51.840Z,24.20
2018-12-26T07:22:21.314Z,24.93
2018-12-26T07:24:50.756Z,23.77
2018-12-26T07:27:27.543Z,24.73
2018-12-26T07:29:57.030Z,26.03
2018-12-26T07:32:32.278Z,25.40
2018-12-26T07:35:02.757Z,24.70
2018-12-26T07:37:32.289Z,23.60
2018-12-26T07:40:04.856Z,24.87
2018-12-26T07:42:34.327Z,23.83
2018-12-26T07:45:03.825Z,25.63
2018-12-26T07:47:34.276Z,24.60
2018-12-26T07:50:04.003Z,24.07
2018-12-26T07:52:35.493Z,24.80
2018-12-26T07:55:04.846Z,24.50
2018-12-26T07:57:34.372Z,24.57
2018-12-26T08:00:13.259Z,23.70
2018-12-26T08:02:42.772Z,22.90
2018-12-26T08:05:12.230Z,24.10
2018-12-26T08:07:42.094Z,23.63
2018-12-26T08:10:12.610Z,24.10
2018-12-26T08:12:44.227Z,22.57
2018-12-26T08:15:24.793Z,22.87
2018-12-26T08:18:03.431Z,23.50
2018-12-26T08:20:32.932Z,23.57
2018-12-26T08:23:11.467Z,21.60
2018-12-26T08:25:40.967Z,21.93
2018-12-26T08:28:10.494Z,22.83
2018-12-26T08:30:46.764Z,21.23
2018-12-26T08:33:16.369Z,20.97
2018-12-26T08:35:45.775Z,21.83
2018-12-26T08:38:25.522Z,21.47
2018-12-26T08:40:54.968Z,22.37
2018-12-26T08:43:26.448Z,20.57
2018-12-26T08:45:57.933Z,21.97
2018-12-26T08:48:27.407Z,20.67
2018-12-26T08:51:03.772Z,21.83
2018-12-26T08:53:33.402Z,20.43
2018-12-26T08:56:02.863Z,20.37
2018-12-26T08:58:38.197Z,20.83
2018-12-26T09:01:10.866Z,21.33
2018-12-26T09:03:40.295Z,21.17
2018-12-26T09:06:20.699Z,20.17
2018-12-26T09:08:53.277Z,20.27
2018-12-26T09:11:22.773Z,20.57
2018-12-26T09:13:53.179Z,21.53
2018-12-26T09:16:22.889Z,20.80
2018-12-26T09:18:52.404Z,20.43
2018-12-26T09:21:35.171Z,21.27
2018-12-26T09:24:11.515Z,20.57
2018-12-26T09:26:41.645Z,20.63
2018-12-26T09:29:11.089Z,20.20
2018-12-26T09:31:43.883Z,21.10
2018-12-26T09:34:20.180Z,21.17
2018-12-26T09:36:49.758Z,21.03
2018-12-26T09:39:21.703Z,21.37
2018-12-26T09:42:04.864Z,20.43
2018-12-26T09:44:34.312Z,20.10
2018-12-26T09:47:03.771Z,19.73
2018-12-26T09:49:33.459Z,20.07
2018-12-26T09:52:03.949Z,19.87
2018-12-26T09:54:37.399Z,19.73
2018-12-26T09:57:06.909Z,23.38
2018-12-26T09:59:38.580Z,20.97
2018-12-26T10:02:09.142Z,20.33
2018-12-26T10:04:38.613Z,18.80
2018-12-26T10:07:09.022Z,18.37
2018-12-26T10:09:40.569Z,18.73
2018-12-26T10:12:10.015Z,19.07
2018-12-26T10:14:40.644Z,19.77
2018-12-26T10:17:10.063Z,18.83
2018-12-26T10:19:39.557Z,18.30
2018-12-26T10:22:09.012Z,18.80
2018-12-26T10:24:38.464Z,18.90
2018-12-26T10:27:09.969Z,18.43
2018-12-26T10:29:39.332Z,19.13
2018-12-26T10:32:19.533Z,18.13
2018-12-26T10:34:52.150Z,19.57
2018-12-26T10:37:22.591Z,18.70
2018-12-26T10:39:53.024Z,19.10
2018-12-26T10:42:31.576Z,19.13
2018-12-26T10:45:05.837Z,16.93
2018-12-26T10:47:35.268Z,18.07
2018-12-26T10:50:07.462Z,16.23
2018-12-26T10:52:44.933Z,17.13
2018-12-26T10:55:14.392Z,17.50
2018-12-26T10:57:45.304Z,19.23
2018-12-26T11:00:15.078Z,18.00
2018-12-26T11:02:47.751Z,18.53
2018-12-26T11:05:29.671Z,19.20
2018-12-26T11:08:01.303Z,18.27
2018-12-26T11:10:32.808Z,17.33
2018-12-26T11:13:13.285Z,17.57
2018-12-26T11:15:42.862Z,16.67
2018-12-26T11:18:19.228Z,18.20
2018-12-26T11:20:54.566Z,18.30
2018-12-26T11:23:24.414Z,16.83
2018-12-26T11:25:53.909Z,19.13
2018-12-26T11:28:25.295Z,16.60
2018-12-26T11:30:55.823Z,15.10
2018-12-26T11:33:31.279Z,18.57
2018-12-26T11:36:00.729Z,20.73
2018-12-26T11:38:37.525Z,15.67
2018-12-26T11:41:09.068Z,14.40
2018-12-26T11:44:03.300Z,15.60
2018-12-26T11:46:32.912Z,16.97
2018-12-26T11:49:02.320Z,14.90
2018-12-26T11:51:33.979Z,15.43
2018-12-26T11:54:03.543Z,15.97
2018-12-26T11:56:33.140Z,15.80
2018-12-26T11:59:03.607Z,13.77
2018-12-26T12:01:38.395Z,15.37
2018-12-26T12:04:07.857Z,15.50
2018-12-26T12:06:39.343Z,15.20
2018-12-26T12:09:17.853Z,14.23
2018-12-26T12:12:06.337Z,14.07
2018-12-26T12:14:35.860Z,13.93
2018-12-26T12:17:06.380Z,13.70
2018-12-26T12:19:36.861Z,13.30
2018-12-26T12:22:07.408Z,13.53
2018-12-26T12:24:36.825Z,12.90
2018-12-26T12:27:08.348Z,13.53
2018-12-26T12:29:39.817Z,12.50
2018-12-26T12:32:15.130Z,13.03
2018-12-26T12:34:45.824Z,13.10
2018-12-26T12:37:15.530Z,12.53
2018-12-26T12:39:45.038Z,13.33
2018-12-26T12:42:16.504Z,12.83
2018-12-26T12:44:48.068Z,13.13
2018-12-26T12:47:19.759Z,13.33
2018-12-26T12:49:57.017Z,13.13
2018-12-26T12:52:50.405Z,13.00
2018-12-26T12:55:19.822Z,12.97
2018-12-26T12:57:58.226Z,13.50
2018-12-26T13:00:28.671Z,12.90
2018-12-26T13:03:00.620Z,12.20
2018-12-26T13:05:29.874Z,12.17
2018-12-26T13:07:59.322Z,12.53
2018-12-26T13:10:50.649Z,11.97
2018-12-26T13:13:20.549Z,12.10
2018-12-26T13:15:51.000Z,12.13
2018-12-26T13:18:20.376Z,12.50
2018-12-26T13:20:51.924Z,12.93
2018-12-26T13:23:21.402Z,12.57
2018-12-26T13:25:50.836Z,11.00
2018-12-26T13:28:20.271Z,11.77
2018-12-26T13:30:49.967Z,12.50
2018-12-26T13:33:19.385Z,11.67
2018-12-26T13:35:48.793Z,11.87
2018-12-26T13:38:18.219Z,12.40
2018-12-26T13:40:47.622Z,12.93
2018-12-26T13:43:17.030Z,12.93
2018-12-26T13:45:46.440Z,12.27
2018-12-26T13:48:15.827Z,12.77
2018-12-26T13:50:45.284Z,11.67
2018-12-26T13:53:14.722Z,12.57
2018-12-26T13:55:44.126Z,12.57
2018-12-26T13:58:13.536Z,12.47
2018-12-26T14:00:43.060Z,12.03
2018-12-26T14:03:24.479Z,11.33
2018-12-26T14:05:57.054Z,12.17
2018-12-26T14:08:26.539Z,11.60
2018-12-26T14:10:58.224Z,12.27
2018-12-26T14:13:27.656Z,11.63
2018-12-26T14:15:58.180Z,12.00
2018-12-26T14:18:35.681Z,21.97
2018-12-26T14:21:05.186Z,12.03
2018-12-26T14:23:35.536Z,11.53
2018-12-26T14:26:05.072Z,11.33
2018-12-26T14:28:35.537Z,11.33
2018-12-26T14:31:05.145Z,11.07
2018-12-26T14:33:35.733Z,11.50
2018-12-26T14:36:06.196Z,12.27
2018-12-26T14:38:44.513Z,12.20
2018-12-26T14:41:13.930Z,11.23
2018-12-26T14:43:49.769Z,10.87
2018-12-26T14:46:19.259Z,12.87
2018-12-26T14:49:03.823Z,11.30
2018-12-26T14:51:34.840Z,11.77
2018-12-26T14:54:04.525Z,12.17
2018-12-26T14:56:41.912Z,11.90
2018-12-26T14:59:12.939Z,11.83
2018-12-26T15:01:42.858Z,12.53
2018-12-26T15:04:14.449Z,11.80
2018-12-26T15:06:45.082Z,13.70
2018-12-26T15:09:14.811Z,13.47
2018-12-26T15:11:44.348Z,14.43
2018-12-26T15:14:14.352Z,14.83
2018-12-26T15:16:51.399Z,14.07
2018-12-26T15:19:23.311Z,14.03
2018-12-26T15:21:55.909Z,14.43
2018-12-26T15:24:27.866Z,14.10
2018-12-26T15:27:00.189Z,13.47
2018-12-26T15:29:33.960Z,14.13
2018-12-26T15:32:04.997Z,14.20
2018-12-26T15:34:37.074Z,13.90
2018-12-26T15:37:08.298Z,13.30
2018-12-26T15:39:45.581Z,13.27
2018-12-26T15:42:25.784Z,14.57
2018-12-26T15:44:59.965Z,13.17
2018-12-26T15:47:31.917Z,12.90
2018-12-26T15:50:05.553Z,12.97
2018-12-26T15:52:37.006Z,13.33
2018-12-26T15:55:10.253Z,12.93
2018-12-26T15:57:42.843Z,11.97
2018-12-26T16:00:25.390Z,12.20
2018-12-26T16:03:00.072Z,13.43
2018-12-26T16:05:33.068Z,13.53
2018-12-26T16:08:03.228Z,13.03
2018-12-26T16:10:38.006Z,12.63
2018-12-26T16:13:13.959Z,13.37
2018-12-26T16:15:46.605Z,14.03
2018-12-26T16:18:17.917Z,14.37
2018-12-26T16:20:55.412Z,14.50
2018-12-26T16:23:26.786Z,13.30
2018-12-26T16:25:57.378Z,12.43
2018-12-26T16:28:29.299Z,13.53
2018-12-26T16:31:03.354Z,12.30
2018-12-26T16:33:34.304Z,13.03
2018-12-26T16:36:05.965Z,11.97
2018-12-26T16:38:36.881Z,13.00
2018-12-26T16:41:11.595Z,11.83
2018-12-26T16:43:45.157Z,11.93
2018-12-26T16:46:16.144Z,11.37
2018-12-26T16:48:50.618Z,11.47
2018-12-26T16:51:31.465Z,11.97
2018-12-26T16:54:06.019Z,10.77
2018-12-26T16:56:41.423Z,11.77
2018-12-26T16:59:12.472Z,11.83
2018-12-26T17:01:43.782Z,11.77
2018-12-26T17:04:14.538Z,11.60
2018-12-26T17:06:46.269Z,12.20
2018-12-26T17:09:27.176Z,11.90
2018-12-26T17:12:05.607Z,12.27
2018-12-26T17:14:38.056Z,12.77
2018-12-26T17:17:10.085Z,11.43
2018-12-26T17:19:41.790Z,12.23
2018-12-26T17:22:12.591Z,12.17
2018-12-26T17:24:46.011Z,12.43
2018-12-26T17:27:16.964Z,12.57
2018-12-26T17:29:48.391Z,12.53
2018-12-26T17:32:20.749Z,12.23
2018-12-26T17:34:53.381Z,16.60
2018-12-26T17:37:25.935Z,16.43
2018-12-26T17:39:56.945Z,14.43
2018-12-26T17:42:28.885Z,22.83
2018-12-26T17:44:58.283Z,16.37
2018-12-26T17:47:27.908Z,15.53
2018-12-26T17:50:33.401Z,16.27
2018-12-26T17:53:03.393Z,16.93
2018-12-26T17:56:01.807Z,17.63
2018-12-26T17:58:35.633Z,14.67
2018-12-26T18:01:19.374Z,14.50
2018-12-26T18:03:53.650Z,15.03
2018-12-26T18:06:23.159Z,15.23
2018-12-26T18:08:58.873Z,14.17
2018-12-26T18:11:34.283Z,15.03
2018-12-26T18:14:05.788Z,15.50
2018-12-26T18:16:35.219Z,13.73
2018-12-26T18:19:10.822Z,23.03
2018-12-26T18:21:40.282Z,16.10
2018-12-26T18:24:09.757Z,14.23
2018-12-26T18:26:41.269Z,14.23
2018-12-26T18:29:17.003Z,13.37
2018-12-26T18:31:46.534Z,13.00
2018-12-26T18:34:16.017Z,11.07
2018-12-26T18:36:49.639Z,12.47
2018-12-26T18:39:19.182Z,13.63
2018-12-26T18:41:49.687Z,13.07
2018-12-26T18:44:19.135Z,12.10
2018-12-26T18:47:03.892Z,12.13
2018-12-26T18:49:39.669Z,11.63
2018-12-26T18:52:10.133Z,11.93
2018-12-26T18:54:51.955Z,12.70
2018-12-26T18:57:21.488Z,17.00
2018-12-26T18:59:58.880Z,14.87
2018-12-26T19:02:28.635Z,13.27
2018-12-26T19:04:58.082Z,13.30
2018-12-26T19:07:27.531Z,13.87
2018-12-26T19:10:06.354Z,13.47
2018-12-26T19:12:35.926Z,14.47
2018-12-26T19:15:07.426Z,16.23
2018-12-26T19:17:36.919Z,17.37
2018-12-26T19:20:10.428Z,12.10
2018-12-26T19:22:39.880Z,11.63
2018-12-26T19:25:09.395Z,13.17
2018-12-26T19:27:46.698Z,12.43
2018-12-26T19:30:17.222Z,11.33
2018-12-26T19:32:51.094Z,13.13
2018-12-26T19:35:20.473Z,11.83
2018-12-26T19:37:51.046Z,12.33
2018-12-26T19:40:22.683Z,11.67
2018-12-26T19:42:54.113Z,12.23
2018-12-26T19:45:23.466Z,11.90
2018-12-26T19:47:53.997Z,12.57
2018-12-26T19:50:23.541Z,11.77
2018-12-26T19:52:57.150Z,11.73
2018-12-26T19:55:26.705Z,11.43
2018-12-26T19:57:57.157Z,12.00
2018-12-26T20:00:30.729Z,11.50
2018-12-26T20:03:02.160Z,12.53
2018-12-26T20:05:31.758Z,11.83
2018-12-26T20:08:04.291Z,10.97
2018-12-26T20:10:34.855Z,11.10
2018-12-26T20:13:05.659Z,10.43
2018-12-26T20:15:37.128Z,11.13
2018-12-26T20:18:06.551Z,9.93
2018-12-26T20:20:36.084Z,10.20
2018-12-26T20:23:05.569Z,10.47
2018-12-26T20:25:35.118Z,10.80
2018-12-26T20:28:22.871Z,10.80
2018-12-26T20:30:55.447Z,10.73
2018-12-26T20:33:25.918Z,11.07
2018-12-26T20:35:55.422Z,10.67
2018-12-26T20:38:24.912Z,10.20
2018-12-26T20:40:54.613Z,10.37
2018-12-26T20:43:24.174Z,10.47
2018-12-26T20:45:53.697Z,10.63
2018-12-26T20:48:26.254Z,11.03
2018-12-26T20:51:06.760Z,10.97
2018-12-26T20:53:36.287Z,11.73
2018-12-26T20:56:07.720Z,10.93
2018-12-26T20:58:40.329Z,11.90
2018-12-26T21:01:10.777Z,11.40
2018-12-26T21:03:47.328Z,11.60
2018-12-26T21:06:17.797Z,11.63
2018-12-26T21:08:47.299Z,12.10
2018-12-26T21:11:17.714Z,11.77
2018-12-26T21:13:51.216Z,13.03
2018-12-26T21:16:21.682Z,10.53
2018-12-26T21:18:51.096Z,12.33
2018-12-26T21:21:21.534Z,11.67
2018-12-26T21:23:50.936Z,11.67
2018-12-26T21:26:21.373Z,10.67
2018-12-26T21:28:56.932Z,11.00
2018-12-26T21:31:27.397Z,10.60
2018-12-26T21:33:56.909Z,10.73
2018-12-26T21:36:28.431Z,10.07
2018-12-26T21:38:57.878Z,10.73
2018-12-26T21:41:27.390Z,11.30
2018-12-26T21:43:56.929Z,10.87
2018-12-26T21:46:27.529Z,9.90
2018-12-26T21:48:56.973Z,9.87
2018-12-26T21:51:26.500Z,9.33
2018-12-26T21:54:06.261Z,9.30
2018-12-26T21:56:36.771Z,8.23
2018-12-26T21:59:13.277Z,7.83
2018-12-26T22:01:42.855Z,8.53
2018-12-26T22:04:12.274Z,7.70
2018-12-26T22:06:42.079Z,8.23
2018-12-26T22:09:21.807Z,7.83
2018-12-26T22:12:01.368Z,7.00
2018-12-26T22:14:30.954Z,7.93
2018-12-26T22:17:03.525Z,6.60
2018-12-26T22:19:32.961Z,6.83
2018-12-26T22:22:04.401Z,6.67
2018-12-26T22:24:35.900Z,7.57
2018-12-26T22:27:05.471Z,7.23
2018-12-26T22:29:34.922Z,6.73
2018-12-26T22:32:06.429Z,6.83
2018-12-26T22:34:36.868Z,7.20
2018-12-26T22:37:06.392Z,7.40
2018-12-26T22:39:39.985Z,7.30
2018-12-26T22:42:10.462Z,6.27
2018-12-26T22:44:40.056Z,7.03
2018-12-26T22:47:09.574Z,6.50
2018-12-26T22:49:40.006Z,6.73
2018-12-26T22:52:20.511Z,7.40
2018-12-26T22:54:49.973Z,7.10
2018-12-26T22:57:20.434Z,6.63
2018-12-26T22:59:54.993Z,6.90
2018-12-26T23:02:24.474Z,6.40
2018-12-26T23:04:58.010Z,7.03
2018-12-26T23:07:27.549Z,6.97
2018-12-26T23:09:57.015Z,6.80
2018-12-26T23:12:26.417Z,6.43
2018-12-26T23:14:55.828Z,6.97
2018-12-26T23:17:25.332Z,6.57
2018-12-26T23:19:54.751Z,6.60
2018-12-26T23:22:24.278Z,6.40
2018-12-26T23:24:56.938Z,6.73
2018-12-26T23:27:33.675Z,6.30
2018-12-26T23:30:04.326Z,6.80
2018-12-26T23:32:46.727Z,6.50
2018-12-26T23:35:12.190Z,6.87
2018-12-26T23:37:41.690Z,7.20
2018-12-26T23:40:12.021Z,7.30
2018-12-26T23:42:42.533Z,7.43
2018-12-26T23:45:11.916Z,6.97
2018-12-26T23:47:42.509Z,6.77
2018-12-26T23:50:12.960Z,7.07
2018-12-26T23:52:44.455Z,6.67
2018-12-26T23:55:13.935Z,7.23
2018-12-26T23:57:46.419Z,6.57
